Messwerte Houghton

Temperatur

Temperatur
°C
1575540000 5.00 5.00 -6
1575543600 6.00 6.00 -6
1575547200 7.00 7.00 -6
1575550800 8.00 8.00 -6
1575554400 9.00 9.00 -6
1575558000 10.00 10.00 -6
1575561600 11.00 11.00 -5
1575565200 12.00 12.00 -4
1575568800 13.00 13.00 -4
1575572400 14.00 14.00 -5
1575576000 15.00 15.00 -5
1575579600 16.00 16.00 -4
1575583200 17.00 17.00 -4
1575586800 18.00 18.00 -4
1575590400 19.00 19.00 -4
1575594000 20.00 20.00 -5
1575597600 21.00 21.00
1575601200 22.00 22.00 -5
1575604800 23.00 23.00 -4
1575608400 0.00 0.00
1575612000 1.00 1.00 -2
1575615600 2.00 2.00 -4
1575619200 3.00 3.00 -4
1575622800 4.00 4.00 -4

Aktuellste Messwerte

Wettercharakter
Wetter: bedeckt
Temperatur
-4 °C
Feuchtigkeit
75 %
Wind
30 km/hWindrichtung: Nordwest
Böen
45 km/h
Luftdruck
1019 hPa
Messzeit: 6. Dezember 2019, 5.00Datenquelle: METAR

Weitere Messstationen in der Nähe

Messstation Temperatur Entfernung
Copper Harbor -3.0 °C 57 km
Marquette -6 °C 101 km
Gwinn MI Sawyer -4 °C 124 km
Land O' Lakes -4 °C 126 km
Ironwood -4 °C 143 km
Thunder Bay -8 °C 147 km
Thunder Bay -8 °C 147 km

Wind

Windrichtung Böen Mittelwind
° km/h km/h
1575540000 5.00 4.00 - 5.00 300° 5
1575543600 6.00 5.00 - 6.00 330° 10
1575547200 7.00 6.00 - 7.00 0
1575550800 8.00 7.00 - 8.00 220° 5
1575554400 9.00 8.00 - 9.00 220° 5
1575558000 10.00 9.00 - 10.00 250° 10
1575561600 11.00 10.00 - 11.00 200° 10
1575565200 12.00 11.00 - 12.00 210° 10
1575568800 13.00 12.00 - 13.00 200° 5
1575572400 14.00 13.00 - 14.00 180° 10
1575576000 15.00 14.00 - 15.00 160° 5
1575579600 16.00 15.00 - 16.00 160° 5
1575583200 17.00 16.00 - 17.00 170° 5
1575586800 18.00 17.00 - 18.00 140° 5
1575590400 19.00 18.00 - 19.00 0
1575594000 20.00 19.00 - 20.00 0
1575597600 21.00 20.00 - 21.00
1575601200 22.00 21.00 - 22.00 290° 5
1575604800 23.00 22.00 - 23.00 270° 10
1575608400 0.00 23.00 - 0.00
1575612000 1.00 0.00 - 1.00 320° 55 30
1575615600 2.00 1.00 - 2.00 320° 60 40
1575619200 3.00 2.00 - 3.00 320° 50 35
1575622800 4.00 3.00 - 4.00 320° 45 25

Ihre Wetterstation

Fehlt Ihre Wetterstation auf unserem Portal?

Schreiben Sie an network@meteonews.ch

Klima

Wann ist es am wärmsten? Wann regnet es am wenigsten? Unsere Klimadaten geben Auskunft.